Terminal Aerodrome Forecast
Issued by NWS Chicago, IL

Home | Current Version | Previous Version | Text Only | Print | Product List | Glossary On
Versions: 1 2 3 4 5 6 7 8 9 10 11 12 13 14 15 16 17 18 19 20 21 22 23 24 25 26 27 28 29 30 31
000
FTUS43 KLOT 111100
TAFRFD
TAF
KRFD 111137Z 1112/1212 17005KT P6SM SCT250
     FM111400 17008KT P6SM FEW040 BKN250
     FM111800 17012G17KT P6SM SCT040 BKN150
     FM120400 17006KT P6SM SCT040 OVC060 PROB30 1207/1210 -TSRA
      BKN040CB
     FM121000 17004KT 5SM BR OVC020=

USA.gov is the U.S. government's official web portal to all federal, state and local government web resources and services.